createdAt,value
2019-05-07T00:00:16.785Z,1007.72
2019-05-07T00:06:16.781Z,1007.86
2019-05-07T00:12:16.782Z,1007.67
2019-05-07T00:18:16.810Z,1007.64
2019-05-07T00:24:16.783Z,1007.52
2019-05-07T00:30:16.761Z,1007.48
2019-05-07T00:36:17.209Z,1007.46
2019-05-07T00:42:16.774Z,1007.42
2019-05-07T00:48:16.796Z,1007.43
2019-05-07T00:54:16.782Z,1007.37
2019-05-07T01:00:16.761Z,1007.32
2019-05-07T01:06:16.807Z,1007.24
2019-05-07T01:12:16.811Z,1007.15
2019-05-07T01:18:16.799Z,1007.16
2019-05-07T01:24:16.784Z,1007.15
2019-05-07T01:30:16.824Z,1007.09
2019-05-07T01:36:16.899Z,1007.08
2019-05-07T01:42:16.823Z,1007.07
2019-05-07T01:48:16.798Z,1007.03
2019-05-07T01:54:16.911Z,1007.01
2019-05-07T02:00:16.819Z,1007.10
2019-05-07T02:06:16.834Z,1007.07
2019-05-07T02:12:16.824Z,1006.93
2019-05-07T02:18:16.802Z,1007.02
2019-05-07T02:24:16.793Z,1006.95
2019-05-07T02:30:16.798Z,1006.96
2019-05-07T02:36:16.850Z,1006.96
2019-05-07T02:42:16.850Z,1006.96
2019-05-07T02:48:16.815Z,1007.01
2019-05-07T02:54:16.891Z,1007.09
2019-05-07T03:00:19.098Z,1007.11
2019-05-07T03:06:16.938Z,1007.24
2019-05-07T03:12:16.835Z,1007.17
2019-05-07T03:18:18.990Z,1007.09
2019-05-07T03:24:16.849Z,1007.07
2019-05-07T03:30:17.495Z,1007.20
2019-05-07T03:36:17.501Z,1007.21
2019-05-07T03:42:16.844Z,1007.23
2019-05-07T03:48:16.895Z,1007.18
2019-05-07T03:54:16.853Z,1007.17
2019-05-07T04:00:16.835Z,1007.15
2019-05-07T04:06:17.861Z,1007.13
2019-05-07T04:12:16.861Z,1007.15
2019-05-07T04:18:16.860Z,1007.22
2019-05-07T04:24:16.851Z,1007.20
2019-05-07T04:30:17.931Z,1007.16
2019-05-07T04:36:16.873Z,1007.17
2019-05-07T04:42:16.864Z,1007.12
2019-05-07T04:48:16.888Z,1007.13
2019-05-07T04:54:16.856Z,1007.19
2019-05-07T05:00:16.878Z,1007.20
2019-05-07T05:06:16.902Z,1007.21
2019-05-07T05:12:16.898Z,1007.18
2019-05-07T05:18:16.954Z,1007.14
2019-05-07T05:24:16.885Z,1007.24
2019-05-07T05:30:16.903Z,1007.33
2019-05-07T05:36:16.880Z,1007.29
2019-05-07T05:42:16.904Z,1007.29
2019-05-07T05:48:16.922Z,1007.24
2019-05-07T05:54:17.022Z,1007.20
2019-05-07T06:00:16.899Z,1007.22
2019-05-07T06:06:16.892Z,1007.19
2019-05-07T06:12:17.048Z,1007.18
2019-05-07T06:18:21.078Z,1007.15
2019-05-07T06:24:16.909Z,1007.32
2019-05-07T06:30:17.959Z,1007.30
2019-05-07T06:36:16.931Z,1007.23
2019-05-07T06:42:17.030Z,1007.21
2019-05-07T06:48:33.555Z,1007.24
2019-05-07T06:54:16.916Z,1007.15
2019-05-07T07:00:16.937Z,1007.17
2019-05-07T07:06:16.990Z,1007.13
2019-05-07T07:12:17.082Z,1007.12
2019-05-07T07:18:16.951Z,1007.05
2019-05-07T07:24:16.947Z,1007.05
2019-05-07T07:30:17.068Z,1006.92
2019-05-07T07:36:16.990Z,1006.96
2019-05-07T07:42:16.929Z,1006.92
2019-05-07T07:48:16.952Z,1006.88
2019-05-07T07:54:16.977Z,1006.82
2019-05-07T08:00:16.920Z,1006.82
2019-05-07T08:06:16.978Z,1006.72
2019-05-07T08:12:16.948Z,1006.66
2019-05-07T08:18:16.957Z,1006.64
2019-05-07T08:24:16.949Z,1006.49
2019-05-07T08:30:16.973Z,1006.51
2019-05-07T08:36:16.968Z,1006.45
2019-05-07T08:42:16.945Z,1006.41
2019-05-07T08:48:17.007Z,1006.30
2019-05-07T08:54:16.987Z,1006.34
2019-05-07T09:00:16.986Z,1006.28
2019-05-07T09:06:17.000Z,1006.27
2019-05-07T09:12:17.067Z,1006.21
2019-05-07T09:18:17.040Z,1006.19
2019-05-07T09:24:17.362Z,1006.12
2019-05-07T09:30:17.127Z,1006.01
2019-05-07T09:36:17.049Z,1006.04
2019-05-07T09:42:17.099Z,1005.92
2019-05-07T09:48:17.039Z,1005.88
2019-05-07T09:54:17.112Z,1005.84
2019-05-07T10:00:17.044Z,1005.86
2019-05-07T10:06:17.052Z,1005.77
2019-05-07T10:12:17.053Z,1005.76
2019-05-07T10:18:17.066Z,1005.78
2019-05-07T10:24:17.127Z,1005.60
2019-05-07T10:30:17.375Z,1005.47
2019-05-07T10:36:17.217Z,1005.35
2019-05-07T10:42:17.096Z,1005.37
2019-05-07T10:48:17.149Z,1005.39
2019-05-07T10:54:17.098Z,1005.37
2019-05-07T11:00:17.096Z,1005.33
2019-05-07T11:06:17.110Z,1005.22
2019-05-07T11:12:17.169Z,1005.05
2019-05-07T11:18:17.139Z,1004.96
2019-05-07T11:24:17.111Z,1004.91
2019-05-07T11:30:17.141Z,1004.75
2019-05-07T11:36:17.121Z,1004.61
2019-05-07T11:42:17.155Z,1004.53
2019-05-07T11:48:17.137Z,1004.48
2019-05-07T11:54:17.124Z,1004.44
2019-05-07T12:00:17.164Z,1004.41
2019-05-07T12:06:17.138Z,1004.37
2019-05-07T12:12:17.187Z,1004.25
2019-05-07T12:18:17.168Z,1004.30
2019-05-07T12:24:17.171Z,1004.20
2019-05-07T12:30:18.179Z,1004.16
2019-05-07T12:36:17.195Z,1004.13
2019-05-07T12:42:17.425Z,1004.11
2019-05-07T12:48:17.202Z,1004.04
2019-05-07T12:54:17.212Z,1003.89
2019-05-07T13:00:17.199Z,1004.02
2019-05-07T13:06:17.237Z,1003.87
2019-05-07T13:12:17.258Z,1003.82
2019-05-07T13:18:17.221Z,1003.75
2019-05-07T13:24:19.211Z,1003.69
2019-05-07T13:30:17.233Z,1003.67
2019-05-07T13:36:17.232Z,1003.58
2019-05-07T13:42:17.226Z,1003.45
2019-05-07T13:48:17.321Z,1003.38
2019-05-07T13:54:17.255Z,1003.23
2019-05-07T14:00:17.276Z,1003.17
2019-05-07T14:06:17.267Z,1003.08
2019-05-07T14:12:17.258Z,1002.95
2019-05-07T14:18:17.287Z,1002.93
2019-05-07T14:24:17.292Z,1002.90
2019-05-07T14:30:17.290Z,1002.85
2019-05-07T14:36:17.308Z,1002.77
2019-05-07T14:42:17.319Z,1002.67
2019-05-07T14:48:17.282Z,1002.66
2019-05-07T14:54:18.391Z,1002.53
2019-05-07T15:00:17.288Z,1002.53
2019-05-07T15:06:17.325Z,1002.44
2019-05-07T15:12:17.453Z,1002.50
2019-05-07T15:18:17.324Z,1002.35
2019-05-07T15:24:17.281Z,1002.24
2019-05-07T15:30:17.285Z,1002.33
2019-05-07T15:36:17.315Z,1002.41
2019-05-07T15:42:17.320Z,1002.29
2019-05-07T15:48:17.348Z,1002.11
2019-05-07T15:54:17.322Z,1002.05
2019-05-07T16:00:17.345Z,1002.01
2019-05-07T16:06:17.343Z,1001.88
2019-05-07T16:12:17.340Z,1001.86
2019-05-07T16:18:17.368Z,1001.73
2019-05-07T16:24:17.383Z,1001.74
2019-05-07T16:30:17.358Z,1001.74
2019-05-07T16:36:17.374Z,1001.63
2019-05-07T16:42:17.372Z,1001.54
2019-05-07T16:48:17.409Z,1001.44
2019-05-07T16:54:17.388Z,1001.45
2019-05-07T17:00:17.351Z,1001.37
2019-05-07T17:06:17.360Z,1001.35
2019-05-07T17:12:17.382Z,1001.29
2019-05-07T17:18:17.408Z,1001.27
2019-05-07T17:24:17.384Z,1001.27
2019-05-07T17:30:17.394Z,1001.28
2019-05-07T17:36:17.423Z,1001.23
2019-05-07T17:42:17.478Z,1001.27
2019-05-07T17:48:17.403Z,1001.14
2019-05-07T17:54:17.461Z,1001.18
2019-05-07T18:00:17.452Z,1001.04
2019-05-07T18:06:17.424Z,1001.06
2019-05-07T18:12:17.427Z,1000.92
2019-05-07T18:18:17.422Z,1000.92
2019-05-07T18:24:19.566Z,1001.06
2019-05-07T18:30:17.508Z,1001.15
2019-05-07T18:36:17.487Z,1001.01
2019-05-07T18:42:17.450Z,1001.02
2019-05-07T18:48:17.460Z,1001.08
2019-05-07T18:54:27.901Z,1001.08
2019-05-07T19:00:17.479Z,1001.06
2019-05-07T19:06:17.467Z,1001.07
2019-05-07T19:12:17.538Z,1001.08
2019-05-07T19:18:17.553Z,1001.07
2019-05-07T19:24:17.493Z,1001.15
2019-05-07T19:30:17.474Z,1001.08
2019-05-07T19:36:17.523Z,1001.12
2019-05-07T19:42:17.481Z,1001.10
2019-05-07T19:48:17.585Z,1001.07
2019-05-07T19:54:17.561Z,1000.95
2019-05-07T20:00:17.525Z,1000.89
2019-05-07T20:06:17.525Z,1000.83
2019-05-07T20:12:17.503Z,1000.79
2019-05-07T20:18:17.510Z,1000.78
2019-05-07T20:24:17.509Z,1000.66
2019-05-07T20:30:17.534Z,1000.54
2019-05-07T20:36:17.537Z,1000.58
2019-05-07T20:42:17.610Z,1000.48
2019-05-07T20:48:17.540Z,1000.58
2019-05-07T20:54:17.615Z,1000.45
2019-05-07T21:00:17.546Z,1000.32
2019-05-07T21:06:17.587Z,1000.20
2019-05-07T21:12:17.562Z,1000.03
2019-05-07T21:18:17.617Z,999.95
2019-05-07T21:24:17.628Z,999.90
2019-05-07T21:30:17.743Z,999.87
2019-05-07T21:36:17.637Z,999.88
2019-05-07T21:42:17.556Z,999.73
2019-05-07T21:48:17.653Z,999.78
2019-05-07T21:54:17.599Z,999.80
2019-05-07T22:00:17.603Z,999.80
2019-05-07T22:06:17.613Z,999.55
2019-05-07T22:12:17.663Z,999.39
2019-05-07T22:18:17.627Z,999.45
2019-05-07T22:24:17.655Z,999.40
2019-05-07T22:30:17.575Z,999.42
2019-05-07T22:36:17.558Z,999.42
2019-05-07T22:42:17.618Z,999.27
2019-05-07T22:48:17.717Z,998.97
2019-05-07T22:54:17.609Z,998.95
2019-05-07T23:00:17.606Z,998.87
2019-05-07T23:06:17.618Z,998.78
2019-05-07T23:12:17.669Z,998.75
2019-05-07T23:18:18.649Z,998.74
2019-05-07T23:24:17.634Z,998.70
2019-05-07T23:30:17.693Z,998.57
2019-05-07T23:36:17.618Z,998.55
2019-05-07T23:42:17.615Z,998.48
2019-05-07T23:48:17.619Z,998.38
2019-05-07T23:54:17.644Z,998.25
